Time;durP1;ratioP1;P1;durP2;ratioP2;P2;SDS_P1;SDS_P2;PMS_P1;PMS_P2;Temp;Humidity;BMP_temperature;BMP_pressure;BME280_temperature;BME280_humidity;BME280_pressure;Samples;Min_cycle;Max_cycle;Signal;HPM_P1;HPM_P2
2021/12/06 00:00:57;;;;;;;24.97;16.50;;;;;;;3.48;91.55;100262.63;5083093;28;20194;-77
2021/12/06 00:03:33;;;;;;;28.00;16.40;;;;;;;3.48;91.83;100260.03;5083516;28;20575;-77
2021/12/06 00:05:59;;;;;;;25.43;16.33;;;;;;;3.46;91.52;100251.41;5084110;28;20191;-77
2021/12/06 00:08:25;;;;;;;27.83;17.37;;;;;;;3.48;91.64;100257.44;5083691;28;20221;-77
2021/12/06 00:10:52;;;;;;;30.70;18.57;;;;;;;3.47;91.45;100266.03;5084748;28;20208;-77
2021/12/06 00:13:20;;;;;;;35.77;18.23;;;;;;;3.46;91.68;100269.47;5084039;28;20255;-77
2021/12/06 00:15:50;;;;;;;26.37;16.93;;;;;;;3.46;91.52;100272.91;5082471;28;20222;-77
2021/12/06 00:18:17;;;;;;;24.50;16.50;;;;;;;3.49;91.63;100270.38;5084134;28;20200;-77
2021/12/06 00:20:44;;;;;;;28.37;17.43;;;;;;;3.45;91.95;100268.63;5083412;28;20235;-77
2021/12/06 00:23:10;;;;;;;31.60;17.10;;;;;;;3.47;91.95;100266.91;5083057;28;20224;-77
2021/12/06 00:25:36;;;;;;;28.73;17.10;;;;;;;3.49;91.97;100270.38;5083160;28;20257;-77
2021/12/06 00:28:03;;;;;;;33.63;18.50;;;;;;;3.50;91.53;100279.81;5083790;28;20228;-77
2021/12/06 00:30:30;;;;;;;31.17;18.67;;;;;;;3.52;91.31;100292.75;5083215;28;20210;-77
2021/12/06 00:32:57;;;;;;;28.27;17.50;;;;;;;3.45;91.25;100303.84;5080660;28;20255;-77
2021/12/06 00:35:24;;;;;;;27.63;18.03;;;;;;;3.44;91.68;100297.84;5077913;28;20932;-78
2021/12/06 00:37:57;;;;;;;25.80;17.00;;;;;;;3.42;91.37;100296.97;5074480;28;20285;-77
2021/12/06 00:40:27;;;;;;;25.73;16.80;;;;;;;3.42;91.52;100312.44;5074842;28;20205;-77
2021/12/06 00:42:53;;;;;;;27.93;17.80;;;;;;;3.40;91.53;100309.00;5074078;28;20222;-78
2021/12/06 00:45:20;;;;;;;27.50;16.53;;;;;;;3.37;91.90;100311.56;5074113;28;20262;-77
2021/12/06 00:47:47;;;;;;;27.60;16.93;;;;;;;3.37;91.62;100316.72;5073871;28;20225;-77
2021/12/06 00:50:16;;;;;;;23.97;16.03;;;;;;;3.34;91.68;100317.53;5074671;28;20204;-77
2021/12/06 00:52:43;;;;;;;28.13;17.40;;;;;;;3.37;91.77;100316.72;5073831;28;20250;-77
2021/12/06 00:55:10;;;;;;;26.83;17.90;;;;;;;3.37;91.81;100311.56;5074237;28;20262;-77
2021/12/06 00:57:38;;;;;;;27.83;17.90;;;;;;;3.39;91.73;100327.94;5074149;28;20247;-77
2021/12/06 01:00:09;;;;;;;28.07;17.37;;;;;;;3.41;91.86;100325.34;5074046;28;20208;-77
2021/12/06 01:02:35;;;;;;;34.60;19.87;;;;;;;3.38;91.95;100321.03;5074040;28;20291;-77
2021/12/06 01:05:03;;;;;;;32.87;18.87;;;;;;;3.41;91.92;100326.22;5073804;28;20758;-77
2021/12/06 01:07:30;;;;;;;29.63;18.23;;;;;;;3.42;91.71;100332.22;5073454;28;20720;-77
2021/12/06 01:09:57;;;;;;;32.47;18.73;;;;;;;3.43;91.70;100349.44;5074127;28;20604;-77
2021/12/06 01:12:23;;;;;;;30.07;17.80;;;;;;;3.42;92.01;100345.13;5073684;28;20229;-78
2021/12/06 01:14:49;;;;;;;27.87;18.33;;;;;;;3.36;91.98;100330.47;5073867;28;20205;-77
2021/12/06 01:17:16;;;;;;;23.27;17.97;;;;;;;3.41;92.25;100335.66;5074640;28;20207;-77
2021/12/06 01:19:42;;;;;;;29.17;18.40;;;;;;;3.41;91.29;100362.34;5074442;28;20205;-78
2021/12/06 01:22:20;;;;;;;30.20;18.30;;;;;;;3.39;91.15;100371.78;5073865;28;20226;-77
2021/12/06 01:24:54;;;;;;;25.80;16.97;;;;;;;3.34;91.49;100361.41;5074460;28;20211;-78
2021/12/06 01:30:19;;;;;;;25.53;16.97;;;;;;;3.41;91.51;100364.03;5072567;28;20211;-78
2021/12/06 01:33:06;;;;;;;25.73;18.20;;;;;;;3.42;91.59;100364.06;5073902;28;20232;-77
2021/12/06 01:41:02;;;;;;;28.93;17.63;;;;;;;3.44;91.12;100383.00;5074169;28;20266;-77
2021/12/06 01:43:29;;;;;;;31.80;18.23;;;;;;;3.41;91.50;100380.41;5073991;28;20226;-77
2021/12/06 01:45:55;;;;;;;35.93;18.23;;;;;;;3.33;91.79;100376.84;5074137;28;20202;-77
2021/12/06 01:48:22;;;;;;;30.27;18.57;;;;;;;3.37;91.44;100374.34;5074124;28;20283;-77
2021/12/06 01:50:48;;;;;;;36.07;19.10;;;;;;;3.37;91.09;100382.09;5074134;28;20204;-78
2021/12/06 01:53:15;;;;;;;34.53;18.93;;;;;;;3.32;91.71;100372.56;5074002;28;20220;-77
2021/12/06 01:55:42;;;;;;;35.17;19.83;;;;;;;3.31;91.55;100360.50;5073992;28;20202;-77
2021/12/06 01:58:10;;;;;;;30.97;18.33;;;;;;;3.32;91.91;100363.09;5074156;28;20204;-77
2021/12/06 02:00:39;;;;;;;33.77;19.57;;;;;;;3.34;91.35;100371.72;5073817;28;20210;-77
2021/12/06 02:03:07;;;;;;;39.90;19.17;;;;;;;3.34;91.60;100373.44;5073178;28;20233;-77
2021/12/06 02:05:35;;;;;;;33.60;17.27;;;;;;;3.30;91.64;100380.28;5073862;28;20204;-76
2021/12/06 02:08:01;;;;;;;40.37;18.57;;;;;;;3.29;91.41;100378.56;5074123;28;20254;-77
2021/12/06 02:10:28;;;;;;;47.90;23.13;;;;;;;3.26;91.79;100372.50;5073012;28;20206;-78
2021/12/06 02:12:55;;;;;;;52.00;23.73;;;;;;;3.20;91.59;100382.78;5073082;28;20272;-77
2021/12/06 02:15:36;;;;;;;59.27;26.50;;;;;;;3.14;92.14;100379.25;5073093;28;20802;-77
2021/12/06 02:18:09;;;;;;;55.67;23.90;;;;;;;3.13;91.91;100371.50;5073418;28;20243;-77
2021/12/06 02:20:42;;;;;;;64.27;27.37;;;;;;;3.11;91.96;100366.34;5073736;28;20213;-77
2021/12/06 02:23:11;;;;;;;62.63;26.97;;;;;;;3.07;92.20;100366.28;5073095;28;20313;-77
2021/12/06 02:25:38;;;;;;;52.47;25.97;;;;;;;3.09;92.26;100365.47;5076503;28;20689;-77
2021/12/06 02:28:05;;;;;;;58.97;26.33;;;;;;;3.07;92.08;100366.28;5076447;28;20228;-78
2021/12/06 02:30:31;;;;;;;58.23;24.77;;;;;;;3.06;92.18;100375.75;5077172;28;20828;-77
2021/12/06 02:32:57;;;;;;;56.20;26.23;;;;;;;3.06;92.21;100382.63;5075997;28;20228;-77
2021/12/06 02:35:24;;;;;;;57.83;26.50;;;;;;;3.04;91.93;100387.75;5076692;28;20311;-77
2021/12/06 02:37:52;;;;;;;62.73;26.63;;;;;;;3.01;92.10;100394.59;5076847;28;20221;-77
2021/12/06 02:40:25;;;;;;;61.60;25.20;;;;;;;2.96;91.69;100387.66;5076358;28;20202;-77
2021/12/06 02:42:51;;;;;;;54.03;26.77;;;;;;;2.93;92.26;100394.50;5076504;28;20220;-77
2021/12/06 02:45:20;;;;;;;61.57;27.17;;;;;;;2.93;92.08;100386.75;5076765;28;20256;-77
2021/12/06 02:47:52;;;;;;;57.13;26.07;;;;;;;2.92;92.37;100388.50;5076004;28;20282;-77
2021/12/06 02:50:20;;;;;;;54.07;25.50;;;;;;;2.93;91.58;100403.13;5076671;28;20193;-77
2021/12/06 02:52:46;;;;;;;53.00;24.87;;;;;;;2.90;91.64;100417.69;5075844;28;20247;-77
2021/12/06 02:55:28;;;;;;;49.23;23.83;;;;;;;2.86;91.23;100415.91;5076094;28;20205;-77
2021/12/06 02:57:58;;;;;;;48.73;24.50;;;;;;;2.81;91.84;100407.25;5076598;28;20216;-77
2021/12/06 03:00:26;;;;;;;53.80;23.83;;;;;;;2.80;91.80;100406.41;5076612;28;20264;-77
2021/12/06 03:02:53;;;;;;;50.10;25.13;;;;;;;2.73;91.88;100407.16;5075375;28;20597;-77
2021/12/06 03:05:20;;;;;;;55.03;25.47;;;;;;;2.72;92.14;100396.00;5076005;28;20200;-77
2021/12/06 03:07:51;;;;;;;59.70;26.90;;;;;;;2.72;92.16;100395.13;5076151;28;20361;-77
2021/12/06 03:10:18;;;;;;;63.00;25.90;;;;;;;2.74;92.40;100385.72;5076238;28;20208;-78
2021/12/06 03:12:45;;;;;;;54.57;26.33;;;;;;;2.75;92.91;100380.53;5075820;28;20224;-78
2021/12/06 03:15:12;;;;;;;49.40;23.97;;;;;;;2.78;92.46;100390.03;5075680;28;20200;-77
2021/12/06 03:17:39;;;;;;;51.03;24.90;;;;;;;2.78;91.97;100415.81;5075717;28;20216;-78
2021/12/06 03:20:09;;;;;;;54.20;25.67;;;;;;;2.73;92.34;100418.31;5076066;28;20205;-78
2021/12/06 03:22:36;;;;;;;51.63;25.83;;;;;;;2.76;91.76;100426.09;5075470;28;20311;-78
2021/12/06 03:25:07;;;;;;;50.93;25.43;;;;;;;2.78;91.80;100426.13;5075765;28;20205;-77
2021/12/06 03:27:33;;;;;;;53.10;26.37;;;;;;;2.82;92.01;100433.06;5075741;28;20274;-77
2021/12/06 03:29:59;;;;;;;56.17;27.00;;;;;;;2.85;91.30;100460.56;5076100;28;20262;-78
2021/12/06 03:32:27;;;;;;;54.33;25.57;;;;;;;2.80;91.10;100457.94;5075091;28;20233;-78
2021/12/06 03:34:53;;;;;;;50.93;26.60;;;;;;;2.81;90.63;100458.81;5075443;28;20212;-77
2021/12/06 03:37:20;;;;;;;56.07;26.67;;;;;;;2.82;91.24;100463.97;5075779;28;20201;-77
2021/12/06 03:39:48;;;;;;;52.10;25.80;;;;;;;2.83;90.94;100459.69;5075999;28;20209;-77
2021/12/06 03:42:17;;;;;;;47.63;25.10;;;;;;;2.83;90.57;100464.84;5075275;28;20220;-77
2021/12/06 03:44:44;;;;;;;53.27;26.03;;;;;;;2.83;90.58;100459.69;5075777;28;20209;-77
2021/12/06 03:47:16;;;;;;;49.87;25.40;;;;;;;2.84;91.03;100462.28;5075206;28;20202;-77
2021/12/06 03:49:44;;;;;;;55.60;26.47;;;;;;;2.81;91.19;100462.25;5075146;28;20815;-77
2021/12/06 03:52:13;;;;;;;56.73;27.23;;;;;;;2.82;90.96;100465.72;5075117;28;20770;-77
2021/12/06 03:54:41;;;;;;;56.47;26.23;;;;;;;2.85;90.55;100471.75;5074961;28;20234;-78
2021/12/06 03:57:08;;;;;;;53.60;26.50;;;;;;;2.86;90.03;100481.22;5075571;28;20542;-77
2021/12/06 03:59:35;;;;;;;47.93;25.60;;;;;;;2.88;90.51;100499.28;5074466;28;20255;-77
2021/12/06 04:02:01;;;;;;;48.43;24.23;;;;;;;2.87;90.20;100503.56;5074050;28;20290;-77
2021/12/06 04:04:28;;;;;;;48.13;24.20;;;;;;;2.89;90.31;100508.75;5074616;28;20208;-77
2021/12/06 04:06:56;;;;;;;48.50;25.93;;;;;;;2.89;90.22;100525.06;5074189;28;20209;-78
2021/12/06 04:09:23;;;;;;;49.90;23.93;;;;;;;2.92;89.84;100522.53;5072003;28;20312;-77
2021/12/06 04:11:49;;;;;;;44.53;24.37;;;;;;;2.89;90.42;100530.22;5073511;28;20225;-77
2021/12/06 04:14:16;;;;;;;46.70;25.30;;;;;;;2.91;89.71;100536.28;5074639;28;20213;-77
2021/12/06 04:16:43;;;;;;;49.90;25.87;;;;;;;2.86;89.56;100540.50;5074154;28;20696;-77
2021/12/06 04:19:10;;;;;;;42.07;23.37;;;;;;;2.88;90.10;100545.69;5073810;28;20205;-77
2021/12/06 04:21:37;;;;;;;48.43;25.60;;;;;;;2.91;89.74;100554.31;5073563;28;20683;-77
2021/12/06 04:24:05;;;;;;;42.93;23.70;;;;;;;2.91;89.01;100566.34;5074035;28;20209;-77
2021/12/06 04:26:32;;;;;;;43.17;23.93;;;;;;;2.92;88.97;100570.69;5074254;28;20209;-77
2021/12/06 04:28:59;;;;;;;41.00;23.50;;;;;;;2.91;89.25;100576.66;5073598;28;20356;-77
2021/12/06 04:31:27;;;;;;;44.80;23.80;;;;;;;2.91;88.93;100576.66;5073670;28;20232;-76
2021/12/06 04:33:54;;;;;;;36.80;22.27;;;;;;;2.88;88.91;100581.78;5073471;28;20274;-77
2021/12/06 04:36:20;;;;;;;40.63;23.27;;;;;;;2.89;88.78;100579.22;5074046;28;20254;-77
2021/12/06 04:38:47;;;;;;;43.53;23.83;;;;;;;2.92;88.90;100596.47;5073509;28;20616;-77
2021/12/06 04:41:15;;;;;;;42.47;22.33;;;;;;;2.91;88.60;100600.72;5073384;28;20200;-77
2021/12/06 04:43:41;;;;;;;38.87;22.23;;;;;;;2.90;87.84;100608.47;5073621;28;20225;-77
2021/12/06 04:46:08;;;;;;;38.53;22.43;;;;;;;2.89;88.39;100617.03;5073338;28;20228;-77
2021/12/06 04:48:34;;;;;;;39.77;22.77;;;;;;;2.87;88.17;100619.56;5073524;28;20269;-77
2021/12/06 04:51:01;;;;;;;41.23;22.37;;;;;;;2.78;88.79;100606.56;5073713;28;20270;-77
2021/12/06 04:53:36;;;;;;;32.83;21.57;;;;;;;2.85;88.75;100610.09;5073196;28;20455;-76
2021/12/06 04:56:07;;;;;;;40.03;22.77;;;;;;;2.83;88.50;100615.22;5073072;28;20188;-77
2021/12/06 04:58:42;;;;;;;40.03;22.00;;;;;;;2.88;88.41;100617.88;5074384;28;20593;-77
2021/12/06 05:01:11;;;;;;;41.77;22.47;;;;;;;2.88;88.62;100617.88;5074622;28;20188;-77
2021/12/06 05:03:40;;;;;;;43.67;23.67;;;;;;;2.86;87.92;100619.56;5074238;28;20278;-77
2021/12/06 05:06:10;;;;;;;40.73;22.47;;;;;;;2.85;88.59;100620.41;5073834;28;20243;-78
2021/12/06 05:08:40;;;;;;;45.50;22.30;;;;;;;2.82;88.62;100621.22;5074088;28;20226;-77
2021/12/06 05:11:07;;;;;;;39.90;22.80;;;;;;;2.83;88.61;100620.38;5073215;28;20197;-77
2021/12/06 05:13:37;;;;;;;43.93;23.83;;;;;;;2.87;88.79;100624.72;5073008;28;20267;-77
2021/12/06 05:16:04;;;;;;;43.93;22.90;;;;;;;2.90;88.72;100626.50;5072914;28;20210;-77
2021/12/06 05:18:30;;;;;;;48.77;23.97;;;;;;;2.88;88.50;100629.06;5073148;28;20357;-77
2021/12/06 05:20:57;;;;;;;40.53;22.53;;;;;;;2.89;88.06;100646.25;5072949;28;20741;-78
2021/12/06 05:23:23;;;;;;;43.83;22.97;;;;;;;2.92;88.42;100646.31;5096550;22;20232;-79
2021/12/06 05:25:50;;;;;;;43.50;23.37;;;;;;;2.88;88.14;100656.56;5088990;28;20212;-77
2021/12/06 05:28:17;;;;;;;43.70;21.53;;;;;;;2.89;88.34;100663.44;5091873;28;20216;-77
2021/12/06 05:30:45;;;;;;;40.77;22.53;;;;;;;2.83;88.71;100651.31;5092617;28;20208;-78
2021/12/06 05:33:18;;;;;;;45.93;22.83;;;;;;;2.84;88.43;100654.78;5092235;28;20231;-78
2021/12/06 05:35:44;;;;;;;40.23;21.90;;;;;;;2.87;88.20;100647.94;5092869;28;20208;-78
2021/12/06 05:38:10;;;;;;;44.90;22.03;;;;;;;2.89;88.30;100653.13;5092740;28;20209;-78
2021/12/06 05:40:37;;;;;;;42.50;21.37;;;;;;;2.91;88.77;100652.28;5092559;28;20626;-78
2021/12/06 05:43:05;;;;;;;44.17;22.90;;;;;;;2.85;88.78;100661.66;5092152;28;20258;-78
2021/12/06 05:45:33;;;;;;;47.30;22.63;;;;;;;2.83;88.46;100646.16;5092894;28;20209;-78
2021/12/06 05:48:01;;;;;;;50.60;22.67;;;;;;;2.85;88.86;100648.75;5092986;28;20211;-79
2021/12/06 05:50:27;;;;;;;46.57;21.47;;;;;;;2.86;88.87;100641.06;5092833;28;20695;-78
2021/12/06 05:52:55;;;;;;;44.27;21.77;;;;;;;2.88;89.40;100649.69;5092310;28;20216;-77
2021/12/06 05:55:23;;;;;;;48.13;22.10;;;;;;;2.88;89.21;100652.25;5091462;28;20748;-78
2021/12/06 05:57:50;;;;;;;43.83;21.20;;;;;;;2.90;88.78;100657.44;5085898;28;20200;-77
2021/12/06 06:00:20;;;;;;;47.30;22.83;;;;;;;2.90;88.89;100665.19;5096487;28;20200;-78
2021/12/06 06:02:47;;;;;;;47.33;23.03;;;;;;;2.86;89.65;100660.81;5095929;28;20228;-78
2021/12/06 06:05:15;;;;;;;44.87;22.00;;;;;;;2.83;89.37;100656.47;5093638;28;20261;-79
2021/12/06 06:07:41;;;;;;;49.07;22.57;;;;;;;2.81;89.70;100654.72;5086356;28;20264;-79
2021/12/06 06:10:09;;;;;;;48.03;20.97;;;;;;;2.80;89.75;100658.16;5091208;28;20273;-79
2021/12/06 06:12:36;;;;;;;46.70;22.80;;;;;;;2.84;89.33;100657.34;5096927;28;20273;-80
2021/12/06 06:15:02;;;;;;;46.93;21.37;;;;;;;2.85;89.57;100662.50;5097493;28;20205;-78
2021/12/06 06:17:38;;;;;;;48.30;21.03;;;;;;;2.85;89.44;100669.38;5096419;28;20211;-79
2021/12/06 06:20:07;;;;;;;45.80;21.60;;;;;;;2.83;89.32;100671.94;5096921;28;20204;-79
2021/12/06 06:22:35;;;;;;;46.30;21.90;;;;;;;2.76;89.47;100667.53;5096890;28;20805;-80
2021/12/06 06:25:01;;;;;;;44.77;20.90;;;;;;;2.81;89.54;100665.03;5096493;28;20336;-79
2021/12/06 06:27:27;;;;;;;48.40;22.30;;;;;;;2.73;89.97;100657.16;5087836;28;20253;-78
2021/12/06 06:29:54;;;;;;;46.23;21.53;;;;;;;2.78;90.19;100652.97;5096485;28;20285;-79
2021/12/06 06:32:20;;;;;;;44.77;21.97;;;;;;;2.81;89.85;100663.31;5095850;28;20202;-79
2021/12/06 06:34:46;;;;;;;50.20;23.47;;;;;;;2.81;89.66;100663.31;5095877;28;20212;-78
2021/12/06 06:37:13;;;;;;;48.87;23.70;;;;;;;2.85;89.25;100674.53;5095033;28;20269;-78
2021/12/06 06:39:41;;;;;;;46.93;23.90;;;;;;;2.85;89.31;100683.13;5095993;28;20200;-79
2021/12/06 06:42:08;;;;;;;38.93;21.53;;;;;;;2.82;88.76;100690.84;5095807;28;20208;-79
2021/12/06 06:44:34;;;;;;;37.60;23.83;;;;;;;2.87;89.17;100699.50;5095758;28;20224;-79
2021/12/06 06:47:00;;;;;;;54.50;30.87;;;;;;;2.90;88.86;100709.00;5095942;28;20291;-78
2021/12/06 06:49:30;;;;;;;35.33;22.50;;;;;;;2.88;88.90;100723.59;5095244;28;20246;-79
2021/12/06 06:51:57;;;;;;;29.03;19.10;;;;;;;2.87;88.25;100734.72;5094664;28;20720;-79
2021/12/06 06:54:23;;;;;;;34.50;20.20;;;;;;;2.83;88.31;100741.53;5086577;28;20224;-79
2021/12/06 06:56:51;;;;;;;26.67;18.50;;;;;;;2.85;87.79;100759.59;5086988;28;20196;-78
2021/12/06 06:59:17;;;;;;;28.03;19.00;;;;;;;2.77;87.99;100762.03;5083270;28;20723;-78
2021/12/06 07:01:45;;;;;;;26.87;19.07;;;;;;;2.75;88.03;100768.88;5093427;28;20201;-77
2021/12/06 07:04:12;;;;;;;25.67;19.13;;;;;;;2.78;88.03;100772.41;5101583;28;20196;-77
2021/12/06 07:06:38;;;;;;;29.53;19.60;;;;;;;2.77;87.42;100765.50;5109219;28;20180;-79
2021/12/06 07:09:05;;;;;;;27.67;20.33;;;;;;;2.78;87.80;100782.69;5084163;28;20279;-78
2021/12/06 07:11:32;;;;;;;25.90;19.73;;;;;;;2.76;87.40;100786.97;5086882;28;20196;-78
2021/12/06 07:13:59;;;;;;;26.33;19.70;;;;;;;2.76;87.65;100793.84;5085928;28;20262;-79
2021/12/06 07:16:29;;;;;;;26.97;18.93;;;;;;;2.72;87.13;100803.22;5088133;28;20227;-80
2021/12/06 07:18:56;;;;;;;28.20;19.43;;;;;;;2.66;87.22;100810.84;5087919;28;20701;-79
2021/12/06 07:21:22;;;;;;;27.13;20.20;;;;;;;2.63;87.41;100807.31;5086462;28;20197;-79
2021/12/06 07:23:49;;;;;;;22.63;18.90;;;;;;;2.70;87.37;100807.47;5084793;28;20232;-79
2021/12/06 07:26:19;;;;;;;27.17;18.93;;;;;;;2.65;87.33;100803.06;5087108;28;20209;-78
2021/12/06 07:28:47;;;;;;;28.80;20.30;;;;;;;2.67;87.23;100807.41;5084404;28;20193;-77
2021/12/06 07:31:15;;;;;;;30.00;22.57;;;;;;;2.70;87.11;100819.50;5083145;28;20205;-77
2021/12/06 07:33:42;;;;;;;19.90;17.77;;;;;;;2.65;86.84;100828.84;5081846;28;20225;-77
2021/12/06 07:36:10;;;;;;;24.50;20.23;;;;;;;2.65;86.79;100839.16;5084130;28;20528;-78
2021/12/06 07:38:37;;;;;;;23.80;19.37;;;;;;;2.59;86.53;100830.44;5083765;28;20219;-77
2021/12/06 07:41:06;;;;;;;23.53;19.97;;;;;;;2.52;86.91;100841.47;5082106;28;20258;-78
2021/12/06 07:43:32;;;;;;;22.40;18.27;;;;;;;2.57;87.03;100833.84;5084393;28;20258;-77
2021/12/06 07:45:58;;;;;;;23.07;19.63;;;;;;;2.55;86.77;100833.78;5082518;28;20612;-78
2021/12/06 07:48:26;;;;;;;21.97;18.90;;;;;;;2.54;86.94;100821.78;5087038;28;20223;-78
2021/12/06 07:50:53;;;;;;;28.03;20.83;;;;;;;2.55;87.58;100828.66;5082541;28;20274;-76
2021/12/06 07:53:19;;;;;;;58.17;31.13;;;;;;;2.55;87.90;100802.00;5081890;28;20272;-76
2021/12/06 07:55:46;;;;;;;27.93;20.80;;;;;;;2.57;88.12;100797.75;5082426;28;20197;-76
2021/12/06 07:58:12;;;;;;;23.50;18.73;;;;;;;2.58;87.63;100805.53;5083033;28;20200;-77
2021/12/06 08:00:44;;;;;;;27.93;19.80;;;;;;;2.58;87.90;100797.78;5081729;28;20550;-76
2021/12/06 08:03:10;;;;;;;21.83;19.10;;;;;;;2.59;87.82;100804.66;5081743;28;20216;-77
2021/12/06 08:05:39;;;;;;;29.13;21.50;;;;;;;2.57;87.91;100805.50;5084190;28;20201;-77
2021/12/06 08:08:08;;;;;;;27.50;21.03;;;;;;;2.56;87.85;100802.06;5081658;28;20196;-78
2021/12/06 08:10:38;;;;;;;32.33;21.87;;;;;;;2.52;87.71;100810.56;5082479;28;20219;-78
2021/12/06 08:13:04;;;;;;;30.73;20.90;;;;;;;2.46;88.10;100797.56;5083590;28;20215;-77
2021/12/06 08:15:31;;;;;;;27.40;19.47;;;;;;;2.48;87.80;100784.69;5082854;28;20242;-78
2021/12/06 08:17:57;;;;;;;33.20;21.20;;;;;;;2.53;88.20;100790.81;5082585;28;20249;-78
2021/12/06 08:20:24;;;;;;;30.30;20.73;;;;;;;2.54;87.83;100802.88;5081312;28;20690;-78
2021/12/06 08:22:52;;;;;;;32.07;20.93;;;;;;;2.55;87.52;100802.00;5082340;28;20224;-77
2021/12/06 08:25:20;;;;;;;32.97;21.83;;;;;;;2.47;87.84;100796.72;5082022;28;20208;-78
2021/12/06 08:27:46;;;;;;;30.93;21.87;;;;;;;2.47;87.73;100801.84;5083917;28;20193;-77
2021/12/06 08:30:16;;;;;;;31.40;21.80;;;;;;;2.46;87.86;100797.56;5081547;28;20219;-78
2021/12/06 08:32:42;;;;;;;35.00;22.13;;;;;;;2.51;87.86;100797.66;5082220;28;20261;-78
2021/12/06 08:35:09;;;;;;;32.67;21.70;;;;;;;2.48;87.52;100797.56;5083162;28;20219;-79
2021/12/06 08:37:36;;;;;;;32.70;22.63;;;;;;;2.51;88.32;100803.66;5081666;28;20260;-77
2021/12/06 08:40:05;;;;;;;32.90;22.03;;;;;;;2.54;87.47;100808.03;5082476;28;20192;-78
2021/12/06 08:42:32;;;;;;;32.57;21.37;;;;;;;2.52;87.73;100804.56;5082816;28;20220;-77
2021/12/06 08:44:58;;;;;;;35.73;23.30;;;;;;;2.48;88.04;100800.16;5085511;28;20201;-78
2021/12/06 08:47:25;;;;;;;41.80;25.60;;;;;;;2.53;87.57;100795.97;5081323;28;20201;-78
2021/12/06 08:49:52;;;;;;;34.50;23.13;;;;;;;2.52;87.97;100789.94;5078220;28;20227;-78
2021/12/06 08:52:19;;;;;;;37.80;22.73;;;;;;;2.59;87.86;100785.78;5081572;28;20201;-78
2021/12/06 08:54:45;;;;;;;31.67;21.73;;;;;;;2.64;88.42;100793.63;5080182;28;20192;-77
2021/12/06 08:57:13;;;;;;;34.47;23.17;;;;;;;2.68;88.63;100782.53;5080497;28;20197;-77
2021/12/06 08:59:40;;;;;;;38.67;23.43;;;;;;;2.66;87.44;100799.66;5083221;28;20609;-79
2021/12/06 09:02:06;;;;;;;32.43;22.23;;;;;;;2.69;87.49;100816.03;5080363;28;20197;-78
2021/12/06 09:04:38;;;;;;;36.73;22.77;;;;;;;2.70;87.80;100811.75;5078693;28;20220;-79
2021/12/06 09:07:11;;;;;;;37.50;22.23;;;;;;;2.69;87.45;100790.25;5079123;28;20223;-79
2021/12/06 09:09:45;;;;;;;30.90;21.97;;;;;;;2.71;86.97;100816.94;5080180;28;20205;-78
2021/12/06 09:12:17;;;;;;;36.53;22.70;;;;;;;2.62;87.65;100801.31;5081125;28;20737;-79
2021/12/06 09:14:44;;;;;;;30.90;21.43;;;;;;;2.65;87.77;100797.91;5082866;28;20200;-78
2021/12/06 09:17:11;;;;;;;37.13;22.57;;;;;;;2.68;87.82;100810.88;5081819;28;20212;-79
2021/12/06 09:19:37;;;;;;;39.87;22.43;;;;;;;2.67;87.93;100801.38;5083455;28;20192;-78
2021/12/06 09:22:04;;;;;;;38.57;21.73;;;;;;;2.71;87.27;100803.19;5081773;28;20196;-78
2021/12/06 09:24:32;;;;;;;35.03;21.47;;;;;;;2.71;87.35;100813.50;5081609;28;20238;-78
2021/12/06 09:26:58;;;;;;;27.83;20.77;;;;;;;2.72;87.68;100804.94;5081182;28;20193;-77
2021/12/06 09:29:26;;;;;;;31.67;21.17;;;;;;;2.73;87.47;100810.09;5080639;28;20200;-78
2021/12/06 09:31:53;;;;;;;35.23;19.93;;;;;;;2.75;86.74;100816.16;5078757;28;20196;-80
2021/12/06 09:34:20;;;;;;;32.43;20.90;;;;;;;2.72;87.35;100822.97;5083301;28;20596;-79
2021/12/06 09:36:47;;;;;;;30.93;21.33;;;;;;;2.74;87.02;100809.25;5086246;28;20224;-79
2021/12/06 09:39:14;;;;;;;33.65;25.75;;;;;;;2.81;87.25;100815.41;5085748;28;20442;-82
2021/12/06 09:41:42;;;;;;;32.10;22.37;;;;;;;2.84;87.14;100820.63;5086681;28;20722;-78
2021/12/06 09:44:10;;;;;;;31.17;21.60;;;;;;;2.83;86.37;100836.06;5087798;28;20225;-78
2021/12/06 09:46:39;;;;;;;28.67;20.13;;;;;;;2.90;86.57;100820.72;5090195;28;20906;-77
2021/12/06 09:49:08;;;;;;;30.03;19.77;;;;;;;2.93;86.51;100817.34;5084924;28;20217;-79
2021/12/06 09:51:35;;;;;;;25.97;18.30;;;;;;;2.95;86.74;100825.97;5084212;28;20245;-79
2021/12/06 09:54:02;;;;;;;20.50;18.23;;;;;;;2.96;86.31;100840.59;5086450;28;20639;-77
2021/12/06 09:56:31;;;;;;;22.13;18.57;;;;;;;3.00;85.61;100864.75;5089892;28;20255;-78
2021/12/06 09:59:00;;;;;;;26.20;19.47;;;;;;;3.00;85.05;100867.31;5089684;28;20234;-80
2021/12/06 10:01:29;;;;;;;25.57;17.73;;;;;;;2.96;85.41;100864.69;5087493;28;20197;-81
2021/12/06 10:03:58;;;;;;;24.83;18.97;;;;;;;2.97;85.54;100865.53;5088908;28;20571;-77
2021/12/06 10:06:26;;;;;;;25.03;18.30;;;;;;;2.95;85.32;100854.31;5081842;28;20747;-80
2021/12/06 10:08:55;;;;;;;20.50;17.07;;;;;;;2.98;85.93;100849.25;5079090;28;20264;-78
2021/12/06 10:11:24;;;;;;;22.67;18.93;;;;;;;3.02;85.17;100857.91;5084683;28;20217;-80
2021/12/06 10:13:52;;;;;;;23.67;18.00;;;;;;;3.04;85.21;100862.25;5083137;28;20702;-80
2021/12/06 10:16:19;;;;;;;22.80;17.73;;;;;;;3.05;85.32;100879.44;5083130;28;20197;-79
2021/12/06 10:18:46;;;;;;;24.37;18.73;;;;;;;3.04;84.77;100885.44;5080988;28;20209;-81
2021/12/06 10:21:14;;;;;;;24.30;19.50;;;;;;;3.03;84.71;100898.31;5091923;28;20198;-80
2021/12/06 10:23:42;;;;;;;24.23;17.27;;;;;;;3.01;85.45;100887.09;5075447;28;20233;-80
2021/12/06 10:26:11;;;;;;;18.37;16.47;;;;;;;2.98;85.18;100893.94;5085698;28;20208;-81
2021/12/06 10:28:40;;;;;;;21.20;17.27;;;;;;;3.01;84.46;100898.28;5079468;28;20262;-80
2021/12/06 10:31:09;;;;;;;21.17;18.23;;;;;;;2.98;84.24;100898.22;5094206;28;20585;-79
2021/12/06 10:33:39;;;;;;;23.43;17.17;;;;;;;2.94;84.51;100893.84;5077987;28;20232;-81
2021/12/06 10:36:09;;;;;;;24.37;18.27;;;;;;;2.96;84.88;100882.72;5089062;28;20205;-79
2021/12/06 10:38:38;;;;;;;22.07;17.87;;;;;;;3.00;84.84;100887.97;5083115;28;20680;-81
2021/12/06 10:41:07;;;;;;;20.37;16.87;;;;;;;3.04;85.01;100889.75;5074929;28;20466;-80
2021/12/06 10:43:36;;;;;;;21.43;17.30;;;;;;;3.07;84.54;100882.06;5083131;28;20227;-80
2021/12/06 10:46:04;;;;;;;22.80;17.33;;;;;;;3.10;84.64;100903.63;5089042;28;20251;-80
2021/12/06 10:48:31;;;;;;;22.87;17.73;;;;;;;3.15;83.96;100912.31;5085281;28;20282;-79
2021/12/06 10:51:00;;;;;;;20.03;16.97;;;;;;;3.14;84.17;100913.16;5095161;28;20218;-81
2021/12/06 10:53:31;;;;;;;27.43;19.00;;;;;;;3.15;83.45;100917.50;5096089;28;20253;-80
2021/12/06 10:55:59;;;;;;;20.63;15.77;;;;;;;3.17;83.84;100918.38;5080722;28;20207;-81
2021/12/06 10:58:30;;;;;;;23.73;17.50;;;;;;;3.15;83.57;100932.06;5085747;28;20208;-80
2021/12/06 11:01:04;;;;;;;23.37;17.30;;;;;;;3.13;83.80;100920.84;5085030;28;20193;-80
2021/12/06 11:03:33;;;;;;;26.33;18.60;;;;;;;3.13;83.78;100913.13;5083013;28;20246;-78
2021/12/06 11:06:03;;;;;;;34.37;20.93;;;;;;;3.08;84.57;100887.25;5074917;28;20247;-79
2021/12/06 11:08:32;;;;;;;27.57;19.97;;;;;;;3.10;84.00;100889.88;5091733;28;20246;-79
2021/12/06 11:11:02;;;;;;;31.23;21.63;;;;;;;3.12;84.00;100888.19;5092115;28;20750;-79
2021/12/06 11:13:31;;;;;;;39.10;21.57;;;;;;;3.14;84.40;100886.50;5089459;28;20217;-79
2021/12/06 11:16:03;;;;;;;33.33;20.73;;;;;;;3.11;83.84;100884.75;5078691;28;20216;-79
2021/12/06 11:18:45;;;;;;;26.07;18.50;;;;;;;3.15;83.53;100893.38;5080529;28;20252;-79
2021/12/06 11:21:33;;;;;;;27.63;19.10;;;;;;;3.16;83.44;100896.00;5076333;28;20795;-80
2021/12/06 11:24:19;;;;;;;28.60;19.43;;;;;;;3.18;83.14;100907.22;5091177;28;20229;-79
2021/12/06 11:26:52;;;;;;;24.03;18.60;;;;;;;3.16;83.25;100905.44;5077371;28;20213;-78
2021/12/06 11:29:22;;;;;;;27.93;19.37;;;;;;;3.19;83.41;100895.19;5091724;28;20275;-81